Latest Weather Observations for Archerfield

IDQ60901

Issued at 9:51 am EST Wednesday 1 July 2015 (issued every 10 minutes, with the page automatically refreshed every 10 minutes)

About weather observations | Map of Brisbane area stations | Latest observations for Brisbane area | Other Formats
Station Details ID: 040211 Name: ARCHERFIELD AIRPORT Lat: -27.57 Lon: 153.01 Height: 12.5 m
Data from the previous 72 hours. | See also: Recent months at Archerfield
Date/Time
EST
Tmp

°C
App
Tmp
°C
Dew
Point
°C
Rel
Hum
%
Delta-T

°C
Wind Press
QNH
hPa
Press
MSL
hPa
Rain
since
9 am
mm
Dir
 
Spd
km/h
Gust
km/h
Spd
kts
Gust
kts
01/09:30am 15.3 15.3 13.7 90 0.9 WNW 6 9 3 5 1024.7 1024.7 0.0
01/09:00am 13.9 14.0 12.6 92 0.7 SW 4 7 2 4 1024.6 1024.6 0.0
01/08:30am 13.4 13.0 12.3 93 0.6 SSW 6 9 3 5 1024.4 1024.4 0.0
01/08:00am 12.5 12.0 11.9 96 0.3 S 6 7 3 4 1024.5 1024.5 0.0
01/07:30am 12.2 11.4 11.7 97 0.3 SSW 7 9 4 5 1024.2 1024.2 0.0
01/07:00am 11.9 12.3 11.4 97 0.3 CALM 0 2 0 1 1023.9 1023.9 0.0
01/06:30am 11.0 11.2 10.5 97 0.3 CALM 0 0 0 0 1023.7 1023.7 0.0
01/06:00am 11.6 10.9 11.3 98 0.2 S 6 7 3 4 1023.6 1023.6 0.0
01/05:30am 11.6 12.0 11.3 98 0.2 CALM 0 0 0 0 1023.5 1023.5 0.0
01/05:25am 11.6 12.0 11.3 98 0.2 CALM 0 0 0 0 1023.6 1023.6 0.0
01/05:00am 9.3 9.0 8.7 96 0.3 CALM 0 0 0 0 1023.5 1023.5 0.0
01/04:50am 10.6 10.7 10.1 97 0.3 CALM 0 0 0 0 1023.3 1023.3 0.0
01/04:32am 11.0 11.2 10.7 98 0.2 CALM 0 0 0 0 1023.1 1023.1 0.0
01/04:30am 11.2 11.5 10.9 98 0.2 CALM 0 0 0 0 1023.1 1023.1 0.0
01/04:00am 11.2 11.5 10.9 98 0.2 CALM 0 0 0 0 1023.3 1023.3 0.0
01/03:41am 10.9 11.1 10.4 97 0.3 CALM 0 0 0 0 1023.5 1023.5 0.0
01/03:36am 10.5 10.6 10.0 97 0.3 CALM 0 0 0 0 1023.6 1023.6 0.0
01/03:30am 10.3 10.3 9.8 97 0.3 CALM 0 0 0 0 1023.6 1023.6 0.0
01/03:02am 10.1 10.0 9.5 96 0.3 CALM 0 0 0 0 1023.7 1023.7 0.0
01/03:00am 10.2 10.2 9.7 97 0.2 CALM 0 0 0 0 1023.7 1023.7 0.0
01/02:56am 11.2 11.4 10.7 97 0.3 CALM 0 0 0 0 1023.7 1023.7 0.0
01/02:30am 10.0 9.8 9.2 95 0.4 CALM 0 4 0 2 1024.0 1024.0 0.0
01/02:27am 10.0 9.5 9.2 95 0.4 SSW 2 7 1 4 1024.1 1024.1 0.0
01/02:00am 11.3 10.2 10.7 96 0.3 SSW 7 9 4 5 1024.3 1024.3 0.0
01/01:30am 11.5 11.8 10.9 96 0.3 CALM 0 0 0 0 1024.7 1024.7 0.0
01/01:00am 12.0 11.3 11.5 97 0.3 S 6 7 3 4 1024.9 1024.9 0.0
01/12:48am 11.8 12.2 11.2 96 0.3 CALM 0 6 0 3 1024.7 1024.7 0.0
01/12:30am 11.3 11.5 10.5 95 0.4 CALM 0 0 0 0 1024.7 1024.7 0.0
01/12:24am 11.2 11.0 10.4 95 0.4 WSW 2 6 1 3 1024.9 1024.9 0.0
 
Date/Time
EST
Tmp

°C
App
Tmp
°C
Dew
Point
°C
Rel
Hum
%
Delta-T

°C
Wind Press
QNH
hPa
Press
MSL
hPa
Rain
since
9 am
mm
Dir
 
Spd
km/h
Gust
km/h
Spd
kts
Gust
kts
30/11:55pm 12.2 12.7 11.6 96 0.3 CALM 0 6 0 3 1025.0 1025.0 0.0
30/11:37pm 11.8 12.1 10.9 94 0.5 CALM 0 6 0 3 1025.0 1025.0 0.0
30/11:30pm 12.3 12.0 11.5 95 0.4 SSE 4 6 2 3 1025.0 1025.0 0.0
30/11:00pm 12.9 13.6 12.1 95 0.4 CALM 0 0 0 0 1025.2 1025.2 0.0
30/10:30pm 13.5 14.4 13.0 97 0.3 CALM 0 0 0 0 1025.3 1025.3 0.0
30/10:00pm 12.6 13.1 11.7 94 0.5 CALM 0 0 0 0 1025.4 1025.4 0.0
30/09:30pm 13.3 14.0 12.2 93 0.6 CALM 0 0 0 0 1025.5 1025.5 0.0
30/09:00pm 13.6 14.3 12.3 92 0.7 CALM 0 0 0 0 1025.6 1025.6 0.0
30/08:30pm 14.4 15.3 13.0 91 0.8 CALM 0 0 0 0 1025.4 1025.4 0.0
30/08:00pm 14.5 15.0 12.7 89 1.0 SW 2 6 1 3 1025.3 1025.3 0.0
30/07:30pm 15.6 16.4 13.6 88 1.1 SSW 2 7 1 4 1025.1 1025.1 0.0
30/07:00pm 16.3 17.3 13.2 82 1.7 CALM 0 0 0 0 1024.7 1024.7 0.0
30/06:30pm 16.9 17.5 13.2 79 2.1 ENE 2 6 1 3 1024.7 1024.7 0.0
30/06:00pm 16.9 16.3 13.4 80 2.0 NE 9 11 5 6 1024.2 1024.2 0.0
30/05:30pm 16.5 16.0 12.5 77 2.2 NE 7 9 4 5 1024.1 1024.1 0.0
30/05:00pm 18.3 17.4 12.7 70 3.1 ENE 9 13 5 7 1024.1 1024.1 0.0
30/04:30pm 19.2 18.0 12.9 67 3.6 NE 11 15 6 8 1024.0 1024.0 0.0
30/04:00pm 20.5 19.6 12.5 60 4.5 NNE 9 11 5 6 1023.9 1023.9 0.0
30/03:30pm 21.1 20.0 12.0 56 5.1 ENE 9 15 5 8 1023.7 1023.7 0.0
30/03:00pm 22.3 21.7 12.3 53 5.6 NNE 7 13 4 7 1023.8 1023.8 0.0
30/02:30pm 22.3 21.8 12.5 53 5.6 ENE 7 11 4 6 1023.8 1023.8 0.0
30/02:00pm 20.4 20.2 13.1 63 4.1 SE 6 7 3 4 1024.2 1024.2 0.0
30/01:30pm 21.1 20.3 13.0 60 4.6 ESE 9 13 5 7 1024.5 1024.5 0.0
30/01:00pm 21.9 21.4 12.2 54 5.4 SW 6 17 3 9 1024.8 1024.8 0.0
30/12:30pm 21.4 21.2 13.6 61 4.5 SSE 7 11 4 6 1025.3 1025.3 0.0
30/12:00pm 20.8 20.7 14.0 65 3.9 SSW 7 15 4 8 1025.8 1025.8 0.0
30/11:30am 20.6 20.7 14.5 68 3.6 SSE 7 15 4 8 1026.1 1026.1 0.0
30/11:00am 19.6 19.8 14.2 71 3.1 S 6 9 3 5 1026.7 1026.7 0.0
30/10:30am 18.9 19.1 14.6 76 2.5 SSW 7 11 4 6 1027.3 1027.3 0.0
30/10:00am 18.1 16.4 14.8 81 1.9 WSW 17 20 9 11 1028.1 1028.1 0.0
30/09:30am 17.3 16.4 14.9 86 1.4 SW 13 19 7 10 1028.3 1028.3 0.0
30/09:00am 16.1 15.8 14.5 90 0.9 SW 9 13 5 7 1028.1 1028.1 7.0
30/08:49am 15.8 16.0 14.8 94 0.6 SW 7 11 4 6 1028.0 1028.0 7.0
30/08:30am 14.7 14.8 14.4 98 0.2 WSW 7 11 4 6 1028.1 1028.1 7.0
30/08:29am 14.7 14.8 14.4 98 0.2 WSW 7 11 4 6 1028.1 1028.1 7.0
30/08:00am 14.2 14.1 13.9 98 0.2 W 7 9 4 5 1028.2 1028.2 7.0
30/07:30am 13.9 13.7 13.6 98 0.2 W 7 9 4 5 1027.8 1027.8 7.0
30/07:00am 13.4 13.2 13.1 98 0.2 S 6 9 3 5 1027.4 1027.4 7.0
30/06:50am 13.5 12.8 13.2 98 0.2 SSW 9 11 5 6 1027.3 1027.3 7.0
30/06:30am 13.2 12.3 12.7 97 0.3 SW 9 17 5 9 1027.4 1027.4 7.0
30/06:05am 13.3 13.0 12.8 97 0.3 SSE 6 9 3 5 1027.2 1027.2 7.0
30/06:00am 13.3 12.8 12.8 97 0.3 S 7 9 4 5 1027.2 1027.2 7.0
30/05:30am 13.6 12.8 13.0 96 0.3 WSW 9 11 5 6 1027.2 1027.2 7.0
30/05:00am 14.4 13.6 13.9 97 0.3 WSW 11 15 6 8 1027.4 1027.4 7.0
30/04:38am 14.4 13.6 14.1 98 0.2 WSW 11 15 6 8 1027.4 1027.4 7.0
30/04:30am 14.2 14.0 13.7 97 0.3 SW 7 9 4 5 1027.3 1027.3 7.0
30/04:15am 14.0 13.8 13.5 97 0.3 SW 7 9 4 5 1027.4 1027.4 7.0
30/04:12am 14.0 13.8 13.5 97 0.3 SW 7 9 4 5 1027.4 1027.4 7.0
30/04:01am 14.0 13.8 13.5 97 0.3 SW 7 9 4 5 1027.4 1027.4 7.0
30/04:00am 14.0 13.8 13.5 97 0.3 SW 7 9 4 5 1027.4 1027.4 7.0
30/03:43am 14.3 15.5 13.8 97 0.3 CALM 0 0 0 0 1027.5 1027.5 7.0
30/03:30am 14.1 15.2 13.6 97 0.3 CALM 0 0 0 0 1027.5 1027.5 7.0
30/03:08am 14.3 14.7 13.8 97 0.3 SW 4 7 2 4 1027.7 1027.7 7.0
30/03:00am 14.3 14.4 13.8 97 0.3 WSW 6 7 3 4 1027.7 1027.7 7.0
30/02:30am 14.4 14.3 13.9 97 0.3 WSW 7 9 4 5 1027.9 1027.9 7.0
30/02:06am 14.2 14.0 13.6 96 0.3 W 7 9 4 5 1027.8 1027.8 7.0
30/02:00am 14.3 14.1 13.7 96 0.3 W 7 9 4 5 1027.9 1027.9 7.0
30/01:49am 14.6 15.5 14.0 96 0.3 WSW 2 7 1 4 1027.9 1027.9 7.0
30/01:30am 14.8 15.8 14.2 96 0.3 WSW 2 6 1 3 1028.0 1028.0 7.0
30/01:00am 15.2 16.7 14.6 96 0.3 CALM 0 0 0 0 1028.4 1028.4 7.0
30/12:30am 15.2 16.7 14.6 96 0.3 CALM 0 0 0 0 1028.3 1028.3 7.0
30/12:00am 15.1 16.2 14.5 96 0.3 NW 2 6 1 3 1028.4 1028.4 7.0
 
Date/Time
EST
Tmp

°C
App
Tmp
°C
Dew
Point
°C
Rel
Hum
%
Delta-T

°C
Wind Press
QNH
hPa
Press
MSL
hPa
Rain
since
9 am
mm
Dir
 
Spd
km/h
Gust
km/h
Spd
kts
Gust
kts
29/11:30pm 15.3 15.5 14.7 96 0.3 WSW 7 9 4 5 1028.5 1028.5 7.0
29/11:00pm 15.3 16.4 14.5 95 0.5 SSW 2 6 1 3 1029.0 1029.0 7.0
29/10:30pm 15.5 15.4 14.9 96 0.3 SSW 9 11 5 6 1029.4 1029.4 6.6
29/10:00pm 15.6 16.1 15.0 96 0.3 SW 6 9 3 5 1029.6 1029.6 6.6
29/09:30pm 15.7 16.2 15.1 96 0.3 SSW 6 7 3 4 1029.6 1029.6 6.4
29/09:00pm 15.7 16.0 15.1 96 0.3 SSE 7 13 4 7 1029.7 1029.7 6.4
29/08:33pm 15.7 14.8 14.9 95 0.5 SSE 13 17 7 9 1029.7 1029.7 6.0
29/08:30pm 15.7 14.8 14.9 95 0.5 SSE 13 17 7 9 1029.7 1029.7 5.8
29/08:16pm 15.9 15.1 15.1 95 0.5 SE 13 22 7 12 1029.7 1029.7 5.0
29/08:03pm 16.1 16.1 15.3 95 0.5 SSE 9 13 5 7 1029.6 1029.6 4.6
29/08:00pm 16.1 16.5 15.3 95 0.5 SSE 7 9 4 5 1029.6 1029.6 4.6
29/07:30pm 16.0 17.7 15.2 95 0.5 CALM 0 0 0 0 1029.3 1029.3 4.6
29/07:09pm 16.0 16.0 15.2 95 0.5 SE 9 11 5 6 1029.2 1029.2 4.6
29/07:00pm 16.0 15.9 15.0 94 0.6 ESE 9 15 5 8 1029.2 1029.2 4.4
29/06:58pm 16.1 16.0 15.0 93 0.6 ESE 9 15 5 8 1029.2 1029.2 4.4
29/06:30pm 16.3 16.7 15.2 93 0.6 S 7 9 4 5 1029.0 1029.0 2.6
29/06:00pm 16.4 16.5 15.4 94 0.6 SSW 9 11 5 6 1028.3 1028.3 2.6
29/05:30pm 16.5 17.0 15.5 94 0.6 SW 7 9 4 5 1027.9 1027.9 2.6
29/05:00pm 16.7 17.3 15.7 94 0.6 SW 7 9 4 5 1027.6 1027.6 2.6
29/04:30pm 16.8 17.0 15.7 93 0.6 S 9 11 5 6 1027.8 1027.8 2.6
29/04:00pm 17.0 17.2 15.7 92 0.8 SSE 9 11 5 6 1027.9 1027.9 2.6
29/03:30pm 17.2 16.9 15.4 89 1.1 S 11 15 6 8 1028.1 1028.1 2.6
29/03:00pm 16.9 16.7 15.6 92 0.8 S 11 13 6 7 1028.5 1028.5 2.6
29/02:43pm 16.6 15.9 15.3 92 0.8 S 13 17 7 9 1028.8 1028.8 2.6
29/02:30pm 16.9 17.1 15.8 93 0.6 SSE 9 13 5 7 1029.0 1029.0 2.4
29/02:10pm 17.0 16.5 15.9 93 0.6 SE 13 17 7 9 1029.0 1029.0 2.0
29/02:00pm 16.8 16.1 15.5 92 0.8 SE 13 19 7 10 1028.9 1028.9 1.6
29/01:30pm 17.0 15.5 15.3 90 1.0 ESE 17 22 9 12 1029.0 1029.0 1.4
29/01:00pm 17.1 15.9 15.1 88 1.2 ESE 15 20 8 11 1029.1 1029.1 1.2
29/12:35pm 17.6 15.8 16.1 91 0.9 ESE 20 28 11 15 1029.3 1029.3 1.2
29/12:30pm 17.2 14.8 15.5 90 1.0 ESE 22 30 12 16 1029.4 1029.4 1.2
29/12:11pm 17.2 16.7 15.9 92 0.8 SE 13 20 7 11 1029.5 1029.5 1.2
29/12:00pm 17.0 16.9 16.0 94 0.6 SE 11 17 6 9 1029.7 1029.7 1.2
29/11:46am 17.2 16.4 16.1 93 0.7 SSE 15 20 8 11 1029.9 1029.9 0.6
29/11:36am 17.3 16.5 16.0 92 0.8 SSE 15 20 8 11 1030.1 1030.1 0.6
29/11:30am 17.6 16.9 16.3 92 0.8 SSE 15 20 8 11 1030.3 1030.3 0.6
29/11:18am 17.4 17.0 16.1 92 0.8 SSE 13 17 7 9 1030.6 1030.6 0.6
29/11:11am 17.2 17.1 16.1 93 0.7 SSE 11 17 6 9 1030.8 1030.8 0.6
29/11:00am 17.0 17.2 15.7 92 0.8 SSE 9 15 5 8 1030.9 1030.9 0.6
29/10:40am 17.2 17.1 16.1 93 0.7 SSE 11 15 6 8 1031.2 1031.2 0.2
29/10:30am 17.3 17.3 16.2 93 0.7 SSE 11 15 6 8 1031.1 1031.1 0.2
29/10:00am 17.0 17.4 16.2 95 0.5 S 9 13 5 7 1031.2 1031.2 0.2
29/09:30am 16.2 16.6 15.4 95 0.5 S 7 11 4 6 1031.4 1031.4 0.2
29/09:19am 16.0 16.4 15.4 96 0.3 S 7 9 4 5 1031.7 1031.7 0.2
29/09:13am 16.0 16.4 15.4 96 0.3 SSW 7 11 4 6 1031.7 1031.7 0.0
29/09:00am 15.9 16.3 15.3 96 0.3 SSW 7 9 4 5 1031.5 1031.5 3.8
29/08:59am 15.8 16.2 15.2 96 0.3 SSW 7 9 4 5 1031.5 1031.5 3.8
29/08:58am 15.8 16.2 15.2 96 0.3 SSW 7 9 4 5 1031.4 1031.4 3.6
29/08:34am 15.4 15.7 14.9 97 0.3 S 7 9 4 5 1031.2 1031.2 3.6
29/08:30am 15.4 15.7 14.9 97 0.3 S 7 9 4 5 1031.2 1031.2 3.6
29/08:15am 15.1 15.4 14.6 97 0.3 SSW 6 7 3 4 1031.1 1031.1 3.6
29/08:00am 14.9 15.2 14.4 97 0.3 S 6 7 3 4 1030.9 1030.9 3.6
29/07:51am 14.8 14.8 14.3 97 0.3 SSW 7 9 4 5 1031.0 1031.0 3.4
29/07:47am 14.7 14.7 14.1 96 0.3 SSW 7 9 4 5 1030.9 1030.9 3.4
29/07:30am 14.5 14.4 13.9 96 0.3 S 7 9 4 5 1030.8 1030.8 3.2
29/07:10am 14.5 14.0 13.9 96 0.3 SSW 9 13 5 7 1030.6 1030.6 2.8
29/07:07am 14.5 14.0 13.9 96 0.3 SSW 9 13 5 7 1030.6 1030.6 2.8
29/07:06am 14.5 14.0 13.9 96 0.3 SSW 9 11 5 6 1030.6 1030.6 2.8
29/07:00am 14.5 14.0 13.9 96 0.3 SSW 9 13 5 7 1030.6 1030.6 2.6
29/06:51am 14.5 13.3 13.9 96 0.3 SSW 13 15 7 8 1030.5 1030.5 2.6
29/06:44am 14.5 13.7 13.9 96 0.3 SSW 11 15 6 8 1030.4 1030.4 2.4
29/06:30am 14.6 13.3 13.8 95 0.4 S 13 17 7 9 1030.2 1030.2 1.6
29/06:00am 15.0 13.8 14.0 94 0.6 S 13 15 7 8 1029.9 1029.9 0.2
29/05:30am 15.1 15.3 14.6 97 0.3 S 7 11 4 6 1029.4 1029.4 0.2
29/05:00am 14.8 15.4 14.2 96 0.3 S 4 6 2 3 1029.2 1029.2 0.2
29/04:30am 15.1 15.4 14.6 97 0.3 S 6 7 3 4 1029.0 1029.0 0.2
29/04:25am 15.2 16.3 14.7 97 0.3 SSW 2 7 1 4 1029.0 1029.0 0.2
29/04:13am 15.1 16.6 14.6 97 0.3 CALM 0 0 0 0 1029.1 1029.1 0.2
29/04:00am 14.6 15.9 14.0 96 0.3 CALM 0 0 0 0 1029.1 1029.1 0.2
29/03:30am 14.7 14.9 14.1 96 0.3 SSW 6 7 3 4 1029.2 1029.2 0.2
29/03:03am 14.7 14.9 14.1 96 0.3 SE 6 6 3 3 1029.4 1029.4 0.2
29/03:00am 14.7 14.9 14.1 96 0.3 SSE 6 6 3 3 1029.4 1029.4 0.2
29/02:42am 14.5 15.7 13.7 95 0.4 CALM 0 0 0 0 1029.5 1029.5 0.2
29/02:30am 15.1 15.7 14.3 95 0.5 SW 4 7 2 4 1029.6 1029.6 0.2
29/02:00am 15.5 16.6 14.5 94 0.6 NW 2 6 1 3 1029.7 1029.7 0.2
29/01:30am 15.7 15.9 14.7 94 0.6 NNE 7 13 4 7 1029.7 1029.7 0.2
29/01:00am 16.0 16.3 15.0 94 0.6 SW 7 11 4 6 1029.8 1029.8 0.2
29/12:30am 16.0 17.5 14.7 92 0.7 CALM 0 6 0 3 1029.9 1029.9 0.2
29/12:00am 16.4 15.9 14.9 91 0.9 ESE 11 15 6 8 1030.2 1030.2 0.2
 
Date/Time
EST
Tmp

°C
App
Tmp
°C
Dew
Point
°C
Rel
Hum
%
Delta-T

°C
Wind Press
QNH
hPa
Press
MSL
hPa
Rain
since
9 am
mm
Dir
 
Spd
km/h
Gust
km/h
Spd
kts
Gust
kts
28/11:30pm 17.0 16.9 15.0 88 1.2 ESE 9 13 5 7 1030.4 1030.4 0.0
28/11:00pm 16.8 16.3 15.0 89 1.0 NE 11 13 6 7 1030.4 1030.4 0.0
28/10:30pm 16.9 17.0 15.4 91 0.9 NE 9 13 5 7 1030.6 1030.6 0.0
28/10:00pm 16.6 16.9 15.0 90 0.9 E 7 9 4 5 1030.6 1030.6 0.0
28/09:30pm 17.0 18.3 15.2 89 1.0 E 2 7 1 4 1030.6 1030.6 0.0
28/09:00pm 16.9 17.2 15.1 89 1.0 ENE 7 11 4 6 1030.6 1030.6 0.0
28/08:30pm 17.0 18.7 15.3 90 1.0 CALM 0 0 0 0 1030.5 1030.5 0.0
28/08:00pm 16.9 18.0 14.7 87 1.3 ENE 2 6 1 3 1030.4 1030.4 0.0
28/07:30pm 17.8 18.2 15.2 85 1.5 E 7 11 4 6 1030.2 1030.2 0.0
28/07:00pm 18.1 17.3 15.2 83 1.7 E 13 17 7 9 1029.9 1029.9 0.0
28/06:30pm 18.6 17.6 15.5 82 1.8 ESE 15 20 8 11 1029.6 1029.6 0.0
28/06:00pm 18.7 17.9 15.2 80 2.0 E 13 19 7 10 1029.0 1029.0 0.0
28/05:30pm 19.2 18.8 15.3 78 2.3 E 11 17 6 9 1028.6 1028.6 0.0
28/05:00pm 19.7 18.6 15.4 76 2.5 E 15 19 8 10 1028.2 1028.2 0.0
28/04:30pm 20.3 18.7 15.1 72 3.1 E 17 22 9 12 1028.2 1028.2 0.0
28/04:00pm 21.0 20.2 15.1 69 3.5 ENE 13 17 7 9 1028.1 1028.1 0.0
28/03:30pm 21.0 19.6 15.5 71 3.3 E 17 20 9 11 1027.9 1027.9 0.0
28/03:00pm 21.4 20.4 15.5 69 3.5 ENE 15 19 8 10 1027.7 1027.7 0.0
28/02:30pm 21.1 20.0 15.4 70 3.4 ENE 15 19 8 10 1027.7 1027.7 0.0
28/02:00pm 20.6 18.8 15.4 72 3.1 ENE 19 24 10 13 1027.9 1027.9 0.0
28/01:30pm 21.8 19.5 15.6 68 3.7 ENE 22 28 12 15 1028.0 1028.0 0.0
28/01:00pm 21.2 20.1 15.3 69 3.5 ESE 15 22 8 12 1028.1 1028.1 0.0
28/12:30pm 23.3 23.2 15.9 63 4.5 SSE 11 17 6 9 1028.4 1028.4 0.0
28/12:00pm 22.7 22.0 15.5 64 4.3 ESE 13 26 7 14 1028.8 1028.8 0.0
28/11:30am 22.3 21.9 16.3 69 3.6 SE 13 19 7 10 1029.4 1029.4 0.0
28/11:00am 20.9 20.5 15.2 70 3.4 SE 11 17 6 9 1029.8 1029.8 0.0
28/10:30am 20.8 20.9 15.4 71 3.2 S 9 13 5 7 1030.2 1030.2 0.0
28/10:00am 19.9 20.1 15.7 77 2.5 S 9 13 5 7 1030.6 1030.6 0.0

Latest Capital City Observations: Canberra | Sydney | Melbourne | Brisbane | Adelaide | Perth | Hobart | Darwin

Other Formats:

Comma delimited format used in spreadsheet applications
http://www.bom.gov.au/fwo/IDQ60901/IDQ60901.94575.axf

JavaScript Object Notation format (JSON) in row-major order
http://www.bom.gov.au/fwo/IDQ60901/IDQ60901.94575.json